Time;durP1;ratioP1;P1;durP2;ratioP2;P2;SDS_P1;SDS_P2;PMS_P1;PMS_P2;Temp;Humidity;BMP_temperature;BMP_pressure;BME280_temperature;BME280_humidity;BME280_pressure;Samples;Min_cycle;Max_cycle;Signal;HPM_P1;HPM_P2
2024/03/21 00:00:46;;;;;;;67.00;40.10;;;;;;;;;;103631;1290;545983;-71
2024/03/21 00:04:11;;;;;;;65.90;38.80;;;;;;;;;;103645;1291;545437;-71
2024/03/21 00:08:00;;;;;;;60.30;37.30;;;;;;;;;;103665;1292;545966;-70
2024/03/21 00:11:39;;;;;;;58.80;36.20;;;;;;;;;;103755;1290;544813;-71
2024/03/21 00:15:16;;;;;;;59.30;35.70;;;;;;;;;;103473;1295;544952;-70
2024/03/21 00:18:55;;;;;;;59.60;36.00;;;;;;;;;;103588;1292;545681;-71
2024/03/21 00:22:40;;;;;;;66.80;38.50;;;;;;;;;;103672;1297;548020;-72
2024/03/21 00:26:03;;;;;;;59.40;37.80;;;;;;;;;;103822;1294;545137;-71
2024/03/21 00:29:34;;;;;;;65.80;38.00;;;;;;;;;;103836;1288;545314;-71
2024/03/21 00:33:10;;;;;;;59.50;35.80;;;;;;;;;;103598;1290;545171;-71
2024/03/21 00:36:51;;;;;;;60.10;36.50;;;;;;;;;;103639;1292;544959;-71
2024/03/21 00:40:35;;;;;;;57.70;34.40;;;;;;;;;;103614;1291;544993;-69
2024/03/21 00:44:07;;;;;;;58.90;34.00;;;;;;;;;;103617;1291;544776;-71
2024/03/21 00:47:43;;;;;;;64.30;35.30;;;;;;;;;;103699;1291;544990;-71
2024/03/21 00:51:21;;;;;;;72.50;41.50;;;;;;;;;;103699;1292;546218;-71
2024/03/21 00:54:58;;;;;;;78.70;46.00;;;;;;;;;;103680;1289;545536;-71
2024/03/21 00:58:58;;;;;;;69.20;43.30;;;;;;;;;;103653;1295;548069;-71
2024/03/21 01:02:40;;;;;;;69.30;43.20;;;;;;;;;;103729;1295;545063;-70
2024/03/21 01:06:01;;;;;;;63.90;41.00;;;;;;;;;;103993;1286;544958;-71
2024/03/21 01:09:26;;;;;;;66.70;42.10;;;;;;;;;;103715;1292;545989;-71
2024/03/21 01:13:03;;;;;;;64.50;38.80;;;;;;;;;;103760;1289;544996;-72
2024/03/21 01:16:44;;;;;;;66.50;39.80;;;;;;;;;;103544;1292;544940;-71
2024/03/21 01:20:20;;;;;;;60.30;37.20;;;;;;;;;;103695;1289;544793;-71
2024/03/21 01:23:55;;;;;;;61.10;38.40;;;;;;;;;;103709;1289;544994;-71
2024/03/21 01:27:32;;;;;;;63.30;39.50;;;;;;;;;;103753;1289;546527;-70
2024/03/21 01:31:21;;;;;;;62.90;40.20;;;;;;;;;;103713;1292;544902;-71
2024/03/21 01:34:49;;;;;;;61.20;38.30;;;;;;;;;;103780;1289;545042;-69
2024/03/21 01:38:26;;;;;;;57.00;35.60;;;;;;;;;;103613;1292;545729;-69
2024/03/21 01:42:03;;;;;;;51.00;33.00;;;;;;;;;;103512;1292;545634;-70
2024/03/21 01:45:44;;;;;;;55.80;34.70;;;;;;;;;;103788;1289;545149;-70
2024/03/21 01:49:18;;;;;;;61.10;38.80;;;;;;;;;;103914;1292;544952;-71
2024/03/21 01:52:55;;;;;;;66.40;38.40;;;;;;;;;;103701;1292;544992;-70
2024/03/21 02:00:21;;;;;;;54.40;33.80;;;;;;;;;;103396;1291;545899;-71
2024/03/21 02:03:51;;;;;;;36.00;23.90;;;;;;;;;;103403;1289;544732;-71
2024/03/21 02:07:41;;;;;;;37.70;24.00;;;;;;;;;;103748;1292;544802;-72
2024/03/21 02:11:03;;;;;;;36.30;24.70;;;;;;;;;;103647;1295;544999;-71
2024/03/21 02:14:49;;;;;;;33.50;23.40;;;;;;;;;;103560;1295;548015;-74
2024/03/21 02:18:18;;;;;;;34.90;24.00;;;;;;;;;;103636;1292;544787;-72
2024/03/21 02:25:33;;;;;;;35.30;22.30;;;;;;;;;;103741;1290;545528;-72
2024/03/21 02:29:11;;;;;;;34.40;23.10;;;;;;;;;;103783;1288;544914;-72
2024/03/21 02:32:52;;;;;;;32.70;21.80;;;;;;;;;;103919;1292;544976;-72
2024/03/21 02:36:29;;;;;;;30.50;21.00;;;;;;;;;;104069;1291;544973;-71
2024/03/21 02:40:03;;;;;;;33.10;21.70;;;;;;;;;;103791;1292;545392;-72
2024/03/21 02:43:40;;;;;;;29.80;19.90;;;;;;;;;;103823;1296;544723;-70
2024/03/21 02:47:41;;;;;;;29.70;20.10;;;;;;;;;;103910;1289;544838;-70
2024/03/21 02:50:55;;;;;;;29.90;20.60;;;;;;;;;;103702;1290;545249;-72
2024/03/21 02:54:48;;;;;;;30.60;20.90;;;;;;;;;;103511;1298;545784;-71
2024/03/21 02:58:10;;;;;;;30.10;21.00;;;;;;;;;;103717;1289;544834;-71
2024/03/21 03:02:10;;;;;;;29.50;20.90;;;;;;;;;;103825;1291;545516;-71
2024/03/21 03:05:27;;;;;;;30.80;21.70;;;;;;;;;;103787;1291;545790;-72
2024/03/21 03:09:02;;;;;;;30.40;20.80;;;;;;;;;;103670;1292;544781;-72
2024/03/21 03:12:39;;;;;;;29.50;19.60;;;;;;;;;;103917;1290;546002;-71
2024/03/21 03:16:19;;;;;;;28.80;20.20;;;;;;;;;;103645;1295;544926;-71
2024/03/21 03:19:55;;;;;;;30.00;21.00;;;;;;;;;;103807;1289;544977;-71
2024/03/21 03:23:35;;;;;;;38.60;24.90;;;;;;;;;;104018;1288;545816;-71
2024/03/21 03:27:12;;;;;;;40.30;25.00;;;;;;;;;;103660;1288;545472;-70
2024/03/21 03:30:47;;;;;;;37.90;26.50;;;;;;;;;;103414;1291;544969;-70
2024/03/21 03:38:23;;;;;;;38.70;25.20;;;;;;;;;;104019;1296;544909;-70
2024/03/21 03:41:42;;;;;;;41.60;27.80;;;;;;;;;;103732;1291;545399;-70
2024/03/21 03:45:21;;;;;;;45.10;29.60;;;;;;;;;;103708;1292;545548;-71
2024/03/21 03:48:55;;;;;;;46.60;29.70;;;;;;;;;;103868;1291;544706;-71
2024/03/21 03:52:33;;;;;;;47.10;31.00;;;;;;;;;;103691;1289;545051;-71
2024/03/21 03:56:13;;;;;;;38.40;26.70;;;;;;;;;;103838;1292;545270;-71
2024/03/21 03:59:44;;;;;;;34.00;22.70;;;;;;;;;;103664;1292;545868;-70
2024/03/21 04:03:26;;;;;;;35.60;23.70;;;;;;;;;;103848;1288;546412;-70
2024/03/21 04:07:03;;;;;;;41.80;26.80;;;;;;;;;;103799;1290;544999;-71
2024/03/21 04:10:40;;;;;;;39.00;25.70;;;;;;;;;;103892;1295;544728;-70
2024/03/21 04:14:43;;;;;;;36.90;24.60;;;;;;;;;;103731;1289;547867;-73
2024/03/21 04:18:33;;;;;;;34.70;22.40;;;;;;;;;;103611;1295;545406;-73
2024/03/21 04:21:53;;;;;;;27.70;18.10;;;;;;;;;;103648;1291;544858;-70
2024/03/21 04:25:11;;;;;;;26.60;17.30;;;;;;;;;;103798;1289;546051;-72
2024/03/21 04:28:47;;;;;;;25.50;17.30;;;;;;;;;;103822;1289;545395;-72
2024/03/21 04:32:25;;;;;;;26.10;17.60;;;;;;;;;;103800;1289;544771;-72
2024/03/21 04:36:07;;;;;;;25.70;17.60;;;;;;;;;;103701;1292;545661;-71
2024/03/21 04:39:40;;;;;;;25.50;17.50;;;;;;;;;;103812;1292;544836;-71
2024/03/21 04:43:17;;;;;;;26.40;16.90;;;;;;;;;;103702;1289;544722;-72
2024/03/21 04:46:55;;;;;;;25.30;16.80;;;;;;;;;;103844;1289;544795;-71
2024/03/21 04:50:32;;;;;;;26.10;17.40;;;;;;;;;;104063;1286;545026;-71
2024/03/21 04:54:12;;;;;;;26.40;17.80;;;;;;;;;;103774;1289;545032;-71
2024/03/21 04:57:49;;;;;;;28.80;18.40;;;;;;;;;;104507;1286;545071;-72
2024/03/21 05:01:26;;;;;;;26.10;17.60;;;;;;;;;;103844;1302;545197;-70
2024/03/21 05:05:21;;;;;;;25.70;17.60;;;;;;;;;;103841;1290;544719;-72
2024/03/21 05:08:36;;;;;;;24.70;17.00;;;;;;;;;;103791;1289;544829;-70
2024/03/21 05:12:19;;;;;;;24.50;16.80;;;;;;;;;;103806;1289;544852;-71
2024/03/21 05:15:55;;;;;;;26.60;18.40;;;;;;;;;;103790;1289;545075;-71
2024/03/21 05:19:32;;;;;;;27.50;17.70;;;;;;;;;;103755;1288;544772;-71
2024/03/21 05:23:12;;;;;;;23.50;15.90;;;;;;;;;;103614;1294;545240;-71
2024/03/21 05:26:46;;;;;;;24.20;16.70;;;;;;;;;;104109;1287;544983;-71
2024/03/21 05:30:28;;;;;;;23.40;16.50;;;;;;;;;;104156;1288;544630;-72
2024/03/21 05:34:05;;;;;;;24.90;16.60;;;;;;;;;;103920;1288;545109;-72
2024/03/21 05:37:39;;;;;;;25.30;18.00;;;;;;;;;;103840;1289;545708;-71
2024/03/21 05:41:25;;;;;;;27.80;19.20;;;;;;;;;;104298;1287;544972;-72
2024/03/21 05:45:03;;;;;;;29.60;18.60;;;;;;;;;;103783;1291;545674;-71
2024/03/21 05:48:32;;;;;;;31.40;19.80;;;;;;;;;;104070;1286;545420;-72
2024/03/21 05:52:09;;;;;;;32.50;20.30;;;;;;;;;;103839;1291;544745;-72
2024/03/21 05:55:56;;;;;;;34.70;22.50;;;;;;;;;;103681;1292;545428;-71
2024/03/21 05:59:27;;;;;;;37.00;23.40;;;;;;;;;;103602;1291;544974;-72
2024/03/21 06:03:02;;;;;;;38.30;24.10;;;;;;;;;;103583;1298;545074;-72
2024/03/21 06:06:41;;;;;;;36.50;23.00;;;;;;;;;;103710;1289;544895;-71
2024/03/21 06:10:19;;;;;;;38.10;22.20;;;;;;;;;;103597;1292;545085;-71
2024/03/21 06:13:59;;;;;;;35.20;22.60;;;;;;;;;;103745;1288;544951;-72
2024/03/21 06:17:35;;;;;;;35.40;21.30;;;;;;;;;;103792;1289;545329;-71
2024/03/21 06:21:29;;;;;;;32.50;19.40;;;;;;;;;;103833;1289;544979;-71
2024/03/21 06:24:46;;;;;;;31.10;18.40;;;;;;;;;;103518;1295;544759;-72
2024/03/21 06:28:46;;;;;;;32.00;18.90;;;;;;;;;;103744;1292;545023;-70
2024/03/21 06:32:18;;;;;;;27.90;18.20;;;;;;;;;;103799;1289;548639;-72
2024/03/21 06:35:44;;;;;;;27.80;16.90;;;;;;;;;;103837;1289;545461;-70
2024/03/21 06:39:19;;;;;;;29.70;18.00;;;;;;;;;;103683;1292;545089;-70
2024/03/21 06:42:54;;;;;;;26.80;17.40;;;;;;;;;;103821;1289;544969;-72
2024/03/21 06:46:52;;;;;;;40.90;18.30;;;;;;;;;;104016;1289;549262;-75
2024/03/21 06:50:16;;;;;;;35.90;19.50;;;;;;;;;;103861;1291;544940;-72
2024/03/21 06:53:46;;;;;;;38.00;20.20;;;;;;;;;;103948;1289;545080;-71
2024/03/21 06:57:30;;;;;;;32.00;19.90;;;;;;;;;;104098;1289;544940;-71
2024/03/21 07:01:01;;;;;;;32.10;20.60;;;;;;;;;;103860;1290;545832;-70
2024/03/21 07:04:42;;;;;;;33.00;21.30;;;;;;;;;;104068;1285;544706;-72
2024/03/21 07:08:19;;;;;;;31.10;20.30;;;;;;;;;;104523;1286;544977;-72
2024/03/21 07:11:53;;;;;;;33.10;19.90;;;;;;;;;;103810;1289;544783;-73
2024/03/21 07:15:34;;;;;;;32.40;21.20;;;;;;;;;;103673;1292;544887;-72
2024/03/21 07:19:11;;;;;;;31.10;19.70;;;;;;;;;;104137;1285;544971;-70
2024/03/21 07:22:49;;;;;;;32.40;19.90;;;;;;;;;;103761;1289;545664;-72
2024/03/21 07:26:24;;;;;;;28.40;19.60;;;;;;;;;;103792;1292;545049;-72
2024/03/21 07:30:15;;;;;;;31.40;20.40;;;;;;;;;;103849;1292;544872;-73
2024/03/21 07:33:51;;;;;;;34.40;23.20;;;;;;;;;;103910;1289;548113;-73
2024/03/21 07:37:12;;;;;;;33.40;22.10;;;;;;;;;;103867;1289;544982;-71
2024/03/21 07:40:58;;;;;;;29.20;18.30;;;;;;;;;;103886;1289;545374;-73
2024/03/21 07:44:31;;;;;;;27.50;17.10;;;;;;;;;;103744;1290;545891;-71
2024/03/21 07:48:12;;;;;;;30.40;17.30;;;;;;;;;;103739;1292;545134;-72
2024/03/21 07:51:44;;;;;;;29.80;18.60;;;;;;;;;;103911;1292;544971;-70
2024/03/21 07:55:24;;;;;;;30.20;17.40;;;;;;;;;;103870;1290;545058;-72
2024/03/21 07:59:01;;;;;;;29.10;17.90;;;;;;;;;;103803;1291;545000;-72
2024/03/21 08:02:39;;;;;;;27.80;16.60;;;;;;;;;;103891;1289;545833;-72
2024/03/21 08:06:16;;;;;;;27.60;17.40;;;;;;;;;;103836;1288;544650;-73
2024/03/21 08:09:53;;;;;;;32.20;18.40;;;;;;;;;;103685;1293;545914;-71
2024/03/21 08:13:31;;;;;;;32.50;17.90;;;;;;;;;;103891;1296;545754;-72
2024/03/21 08:17:09;;;;;;;31.50;19.90;;;;;;;;;;103700;1292;545753;-71
2024/03/21 08:20:46;;;;;;;33.30;21.00;;;;;;;;;;104266;1285;544850;-73
2024/03/21 08:24:26;;;;;;;43.60;26.50;;;;;;;;;;103774;1290;544746;-71
2024/03/21 08:28:01;;;;;;;38.50;24.20;;;;;;;;;;103745;1291;546031;-72
2024/03/21 08:31:38;;;;;;;36.20;22.30;;;;;;;;;;103761;1291;545829;-72
2024/03/21 08:35:21;;;;;;;30.30;20.20;;;;;;;;;;103817;1292;544982;-72
2024/03/21 08:38:57;;;;;;;25.70;17.30;;;;;;;;;;103818;1290;547120;-72
2024/03/21 08:42:31;;;;;;;21.20;14.40;;;;;;;;;;103970;1291;545092;-72
2024/03/21 08:46:10;;;;;;;22.30;15.40;;;;;;;;;;103969;1289;544824;-73
2024/03/21 08:49:45;;;;;;;21.30;14.60;;;;;;;;;;103869;1289;545223;-71
2024/03/21 08:53:20;;;;;;;22.80;15.00;;;;;;;;;;103845;1292;546305;-72
2024/03/21 08:57:01;;;;;;;23.90;14.80;;;;;;;;;;103851;1289;544812;-73
2024/03/21 09:00:37;;;;;;;20.30;14.60;;;;;;;;;;104275;1289;545805;-69
2024/03/21 09:04:19;;;;;;;24.20;16.30;;;;;;;;;;103719;1289;544902;-72
2024/03/21 09:07:54;;;;;;;25.20;15.50;;;;;;;;;;103686;1289;544906;-73
2024/03/21 09:11:31;;;;;;;23.00;13.70;;;;;;;;;;103772;1294;544749;-71
2024/03/21 09:15:09;;;;;;;25.10;14.20;;;;;;;;;;103874;1289;544888;-72
2024/03/21 09:18:45;;;;;;;22.30;14.60;;;;;;;;;;103848;1292;545578;-72
2024/03/21 09:22:23;;;;;;;19.70;12.60;;;;;;;;;;103846;1289;545311;-72
2024/03/21 09:26:00;;;;;;;21.00;12.60;;;;;;;;;;103849;1292;545447;-73
2024/03/21 09:29:39;;;;;;;21.40;13.80;;;;;;;;;;103914;1290;545368;-73
2024/03/21 09:33:16;;;;;;;19.80;13.70;;;;;;;;;;103706;1291;546178;-74
2024/03/21 09:36:54;;;;;;;19.40;12.40;;;;;;;;;;103843;1291;545252;-71
2024/03/21 09:40:31;;;;;;;18.30;12.30;;;;;;;;;;103823;1302;544786;-72
2024/03/21 09:44:14;;;;;;;16.40;10.50;;;;;;;;;;103845;1292;545471;-72
2024/03/21 09:47:45;;;;;;;14.20;9.40;;;;;;;;;;103841;1290;544845;-73
2024/03/21 09:51:25;;;;;;;18.60;10.60;;;;;;;;;;103769;1294;545340;-75
2024/03/21 09:55:00;;;;;;;20.80;10.50;;;;;;;;;;103743;1291;545004;-73
2024/03/21 09:58:39;;;;;;;17.30;10.50;;;;;;;;;;103773;1291;545260;-73
2024/03/21 10:02:15;;;;;;;19.40;11.00;;;;;;;;;;104255;1286;545062;-72
2024/03/21 10:06:02;;;;;;;17.40;9.90;;;;;;;;;;103822;1292;545527;-74
2024/03/21 10:09:27;;;;;;;18.70;9.30;;;;;;;;;;103834;1289;546521;-72
2024/03/21 10:13:08;;;;;;;19.50;10.40;;;;;;;;;;103833;1289;544748;-72
2024/03/21 10:16:45;;;;;;;14.80;9.70;;;;;;;;;;103914;1289;544725;-73
2024/03/21 10:20:23;;;;;;;15.30;8.80;;;;;;;;;;103795;1293;545207;-72
2024/03/21 10:24:01;;;;;;;15.70;9.20;;;;;;;;;;103870;1289;544874;-73
2024/03/21 10:27:39;;;;;;;17.20;9.30;;;;;;;;;;103675;1292;545634;-74
2024/03/21 10:31:16;;;;;;;14.10;7.10;;;;;;;;;;103737;1289;544770;-72
2024/03/21 10:34:56;;;;;;;14.40;7.00;;;;;;;;;;103831;1290;545314;-74
2024/03/21 10:38:31;;;;;;;9.80;4.50;;;;;;;;;;103851;1292;545033;-73
2024/03/21 10:42:14;;;;;;;12.60;6.00;;;;;;;;;;103772;1290;546000;-75
2024/03/21 10:45:46;;;;;;;13.80;8.30;;;;;;;;;;103815;1292;544965;-72
2024/03/21 10:49:23;;;;;;;11.10;6.60;;;;;;;;;;103879;1292;545950;-72
2024/03/21 10:53:00;;;;;;;12.00;7.40;;;;;;;;;;103803;1289;544862;-72
2024/03/21 10:56:39;;;;;;;11.70;7.20;;;;;;;;;;103627;1291;545026;-72
2024/03/21 11:00:18;;;;;;;13.00;8.10;;;;;;;;;;103845;1290;545000;-73
2024/03/21 11:03:55;;;;;;;13.20;7.40;;;;;;;;;;103799;1291;545083;-74
2024/03/21 11:07:30;;;;;;;17.00;7.30;;;;;;;;;;103774;1289;545297;-72
2024/03/21 11:11:08;;;;;;;10.60;5.60;;;;;;;;;;103737;1289;545635;-71
2024/03/21 11:14:45;;;;;;;10.60;5.60;;;;;;;;;;104330;1289;545008;-72
2024/03/21 11:18:22;;;;;;;10.40;5.60;;;;;;;;;;103752;1292;545584;-73
2024/03/21 11:22:01;;;;;;;11.00;5.90;;;;;;;;;;103851;1292;545494;-72
2024/03/21 11:25:38;;;;;;;13.30;5.20;;;;;;;;;;103810;1289;544946;-72
2024/03/21 11:29:15;;;;;;;9.50;4.50;;;;;;;;;;104119;1288;544725;-73
2024/03/21 11:32:53;;;;;;;15.40;9.40;;;;;;;;;;103907;1289;545585;-74
2024/03/21 11:36:37;;;;;;;21.20;13.40;;;;;;;;;;103667;1292;547984;-75
2024/03/21 11:40:11;;;;;;;19.20;12.00;;;;;;;;;;103761;1289;545087;-73
2024/03/21 11:43:53;;;;;;;22.80;14.60;;;;;;;;;;103843;1289;545757;-72
2024/03/21 11:47:23;;;;;;;29.30;14.50;;;;;;;;;;103769;1289;545854;-70
2024/03/21 11:51:00;;;;;;;46.20;24.70;;;;;;;;;;103873;1288;544970;-73
2024/03/21 11:54:38;;;;;;;41.70;21.60;;;;;;;;;;103961;1288;545799;-73
2024/03/21 11:58:15;;;;;;;25.70;15.10;;;;;;;;;;104071;1288;544994;-72
2024/03/21 12:01:49;;;;;;;21.80;13.50;;;;;;;;;;103895;1301;544711;-73
2024/03/21 12:05:29;;;;;;;18.90;12.10;;;;;;;;;;103674;1289;545048;-73
2024/03/21 12:09:08;;;;;;;20.40;13.30;;;;;;;;;;103930;1289;544758;-73
2024/03/21 12:12:46;;;;;;;22.70;14.00;;;;;;;;;;103640;1292;545476;-72
2024/03/21 12:16:23;;;;;;;19.80;13.20;;;;;;;;;;103850;1289;545881;-73
2024/03/21 12:19:57;;;;;;;20.10;14.10;;;;;;;;;;104228;1286;544852;-73
2024/03/21 12:23:38;;;;;;;21.90;14.30;;;;;;;;;;103539;1295;545025;-72
2024/03/21 12:27:21;;;;;;;20.60;12.90;;;;;;;;;;103812;1292;548072;-77
2024/03/21 12:30:56;;;;;;;21.90;14.40;;;;;;;;;;103519;1295;544828;-73
2024/03/21 12:34:29;;;;;;;28.20;15.90;;;;;;;;;;103813;1288;544927;-72
2024/03/21 12:38:08;;;;;;;22.60;14.10;;;;;;;;;;103830;1289;544753;-72
2024/03/21 12:41:45;;;;;;;20.50;13.60;;;;;;;;;;103770;1289;544781;-74
2024/03/21 12:45:23;;;;;;;17.10;12.10;;;;;;;;;;103555;1295;545062;-72
2024/03/21 12:49:00;;;;;;;24.30;14.10;;;;;;;;;;103734;1289;544947;-73
2024/03/21 12:52:38;;;;;;;19.90;11.80;;;;;;;;;;104482;1283;544905;-71
2024/03/21 12:56:16;;;;;;;21.80;12.90;;;;;;;;;;103814;1289;544828;-72
2024/03/21 12:59:49;;;;;;;19.70;12.80;;;;;;;;;;103643;1291;544813;-73
2024/03/21 13:03:30;;;;;;;19.10;13.00;;;;;;;;;;103680;1291;545748;-72
2024/03/21 13:07:07;;;;;;;23.30;13.20;;;;;;;;;;104019;1288;544995;-74
2024/03/21 13:10:41;;;;;;;21.80;13.20;;;;;;;;;;104627;1283;544763;-71
2024/03/21 13:14:23;;;;;;;20.90;12.70;;;;;;;;;;103851;1289;544966;-72
2024/03/21 13:17:59;;;;;;;17.50;11.50;;;;;;;;;;103752;1295;545551;-72
2024/03/21 13:21:37;;;;;;;16.10;10.20;;;;;;;;;;103820;1290;545086;-71
2024/03/21 13:25:19;;;;;;;17.70;10.80;;;;;;;;;;103767;1290;544718;-72
2024/03/21 13:28:52;;;;;;;16.10;11.00;;;;;;;;;;103807;1295;544906;-73
2024/03/21 13:32:30;;;;;;;16.70;10.30;;;;;;;;;;103907;1302;545167;-72
2024/03/21 13:36:08;;;;;;;15.00;9.40;;;;;;;;;;103824;1289;544939;-73
2024/03/21 13:39:44;;;;;;;13.10;8.30;;;;;;;;;;103721;1290;545048;-72
2024/03/21 13:43:23;;;;;;;12.60;8.20;;;;;;;;;;103731;1289;545112;-72
2024/03/21 13:46:59;;;;;;;13.20;7.50;;;;;;;;;;103984;1290;544767;-73
2024/03/21 13:50:37;;;;;;;11.20;7.00;;;;;;;;;;103811;1290;544975;-74
2024/03/21 13:54:16;;;;;;;13.90;7.50;;;;;;;;;;104014;1288;546059;-71
2024/03/21 13:57:52;;;;;;;14.40;7.20;;;;;;;;;;103838;1302;545620;-72
2024/03/21 14:01:29;;;;;;;15.80;8.60;;;;;;;;;;103777;1292;544808;-72
2024/03/21 14:05:07;;;;;;;22.10;10.00;;;;;;;;;;104666;1289;545754;-71
2024/03/21 14:08:40;;;;;;;20.30;8.80;;;;;;;;;;104725;1282;545026;-72
2024/03/21 14:12:18;;;;;;;32.20;12.10;;;;;;;;;;104609;1289;544938;-73
2024/03/21 14:15:55;;;;;;;19.80;9.00;;;;;;;;;;104006;1293;544853;-71
2024/03/21 14:19:33;;;;;;;17.40;9.70;;;;;;;;;;104114;1286;544780;-73
2024/03/21 14:23:14;;;;;;;18.00;9.00;;;;;;;;;;103740;1291;545758;-73
2024/03/21 14:26:52;;;;;;;21.00;10.40;;;;;;;;;;103738;1290;545046;-73
2024/03/21 14:30:29;;;;;;;23.80;10.40;;;;;;;;;;103788;1292;544879;-71
2024/03/21 14:34:08;;;;;;;19.30;10.50;;;;;;;;;;103685;1292;545475;-73
2024/03/21 14:37:44;;;;;;;26.70;10.90;;;;;;;;;;104089;1287;544931;-71
2024/03/21 14:41:22;;;;;;;17.10;10.20;;;;;;;;;;103796;1290;544996;-71
2024/03/21 14:44:59;;;;;;;15.10;10.00;;;;;;;;;;104244;1285;545437;-73
2024/03/21 14:48:36;;;;;;;16.80;9.60;;;;;;;;;;103792;1289;545180;-73
2024/03/21 14:52:14;;;;;;;20.00;10.20;;;;;;;;;;103835;1289;545775;-72
2024/03/21 14:55:53;;;;;;;16.10;10.40;;;;;;;;;;103831;1289;545915;-72
2024/03/21 14:59:30;;;;;;;37.00;11.40;;;;;;;;;;103758;1294;545083;-72
2024/03/21 15:03:04;;;;;;;25.60;13.40;;;;;;;;;;103839;1289;544912;-74
2024/03/21 15:06:43;;;;;;;25.00;17.60;;;;;;;;;;103841;1289;545254;-74
2024/03/21 15:10:21;;;;;;;24.50;16.10;;;;;;;;;;104170;1285;545092;-73
2024/03/21 15:14:02;;;;;;;30.50;18.20;;;;;;;;;;104093;1288;546434;-72
2024/03/21 15:17:36;;;;;;;20.60;12.90;;;;;;;;;;104066;1286;545284;-75
2024/03/21 15:21:13;;;;;;;19.10;12.10;;;;;;;;;;103687;1295;545083;-72
2024/03/21 15:24:52;;;;;;;20.80;12.00;;;;;;;;;;103668;1295;545463;-73
2024/03/21 15:28:29;;;;;;;17.60;12.10;;;;;;;;;;104184;1286;545109;-71
2024/03/21 15:32:06;;;;;;;23.30;14.10;;;;;;;;;;103725;1295;545204;-72
2024/03/21 15:35:49;;;;;;;21.70;12.50;;;;;;;;;;103575;1292;549436;-72
2024/03/21 15:39:21;;;;;;;19.20;12.90;;;;;;;;;;103897;1289;545654;-73
2024/03/21 15:42:58;;;;;;;20.30;12.70;;;;;;;;;;103776;1290;544749;-73
2024/03/21 15:46:36;;;;;;;19.10;13.10;;;;;;;;;;103866;1292;545055;-74
2024/03/21 15:50:19;;;;;;;21.40;13.70;;;;;;;;;;103774;1290;548262;-73
2024/03/21 15:53:57;;;;;;;19.60;13.60;;;;;;;;;;103583;1291;548010;-74
2024/03/21 15:57:28;;;;;;;20.40;14.70;;;;;;;;;;103751;1290;544945;-73
2024/03/21 16:01:06;;;;;;;27.80;18.20;;;;;;;;;;103806;1289;544998;-73
2024/03/21 16:04:44;;;;;;;17.70;12.40;;;;;;;;;;103763;1291;545594;-73
2024/03/21 16:08:21;;;;;;;19.80;13.50;;;;;;;;;;103843;1301;544779;-73
2024/03/21 16:11:59;;;;;;;19.70;12.50;;;;;;;;;;103841;1292;544800;-73
2024/03/21 16:15:36;;;;;;;17.00;11.50;;;;;;;;;;103760;1291;545150;-74
2024/03/21 16:19:14;;;;;;;21.00;13.10;;;;;;;;;;103857;1289;544944;-73
2024/03/21 16:22:52;;;;;;;19.00;11.60;;;;;;;;;;103773;1289;545047;-73
2024/03/21 16:26:28;;;;;;;19.00;12.60;;;;;;;;;;103754;1291;544997;-71
2024/03/21 16:30:07;;;;;;;20.10;14.00;;;;;;;;;;103879;1289;544889;-73
2024/03/21 16:33:43;;;;;;;26.50;16.30;;;;;;;;;;103864;1292;545962;-73
2024/03/21 16:37:21;;;;;;;24.60;17.30;;;;;;;;;;103866;1289;544965;-73
2024/03/21 16:40:58;;;;;;;34.10;22.30;;;;;;;;;;103737;1291;544825;-71
2024/03/21 16:44:36;;;;;;;28.00;20.70;;;;;;;;;;103836;1289;544721;-73
2024/03/21 16:48:13;;;;;;;28.10;19.70;;;;;;;;;;104279;1288;544963;-70
2024/03/21 16:51:51;;;;;;;30.10;21.60;;;;;;;;;;103734;1294;544764;-72
2024/03/21 16:55:28;;;;;;;27.80;19.80;;;;;;;;;;103630;1293;545144;-73
2024/03/21 16:59:06;;;;;;;38.70;25.50;;;;;;;;;;103846;1288;544829;-72
2024/03/21 17:02:43;;;;;;;37.90;28.90;;;;;;;;;;103760;1288;545066;-73
2024/03/21 17:06:21;;;;;;;45.20;35.40;;;;;;;;;;103990;1288;545450;-70
2024/03/21 17:09:58;;;;;;;38.20;26.30;;;;;;;;;;103808;1289;545514;-73
2024/03/21 17:13:36;;;;;;;33.70;22.00;;;;;;;;;;103841;1294;544838;-72
2024/03/21 17:17:09;;;;;;;33.50;20.90;;;;;;;;;;104570;1283;544706;-72
2024/03/21 17:20:51;;;;;;;31.60;20.90;;;;;;;;;;103842;1289;545743;-73
2024/03/21 17:24:28;;;;;;;29.40;21.70;;;;;;;;;;103855;1289;545194;-71
2024/03/21 17:28:06;;;;;;;28.90;19.70;;;;;;;;;;103795;1289;545488;-73
2024/03/21 17:31:43;;;;;;;26.40;18.60;;;;;;;;;;103722;1295;544861;-71
2024/03/21 17:35:21;;;;;;;20.20;12.00;;;;;;;;;;104391;1282;544774;-72
2024/03/21 17:38:54;;;;;;;19.80;12.90;;;;;;;;;;103873;1292;545023;-73
2024/03/21 17:42:36;;;;;;;22.70;14.90;;;;;;;;;;103708;1292;544711;-73
2024/03/21 17:46:13;;;;;;;19.40;12.60;;;;;;;;;;103736;1290;544835;-73
2024/03/21 17:49:51;;;;;;;21.40;12.90;;;;;;;;;;103800;1289;545861;-71
2024/03/21 17:53:27;;;;;;;20.50;14.40;;;;;;;;;;103814;1289;545387;-73
2024/03/21 17:57:06;;;;;;;16.20;11.40;;;;;;;;;;103848;1294;544739;-72
2024/03/21 18:00:39;;;;;;;12.90;8.90;;;;;;;;;;104710;1283;545180;-72
2024/03/21 18:04:22;;;;;;;13.00;8.20;;;;;;;;;;103781;1289;546067;-73
2024/03/21 18:07:58;;;;;;;13.20;9.00;;;;;;;;;;103721;1291;545373;-72
2024/03/21 18:11:36;;;;;;;14.80;10.00;;;;;;;;;;103768;1291;544794;-71
2024/03/21 18:15:13;;;;;;;12.10;8.30;;;;;;;;;;103853;1296;546017;-72
2024/03/21 18:18:50;;;;;;;22.20;12.00;;;;;;;;;;103702;1293;544776;-73
2024/03/21 18:22:28;;;;;;;21.50;12.60;;;;;;;;;;103830;1289;545878;-72
2024/03/21 18:26:06;;;;;;;24.80;15.80;;;;;;;;;;103665;1289;544857;-72
2024/03/21 18:29:42;;;;;;;28.40;17.20;;;;;;;;;;104184;1285;544920;-73
2024/03/21 18:33:20;;;;;;;18.10;12.10;;;;;;;;;;103795;1290;545649;-70
2024/03/21 18:36:54;;;;;;;20.20;13.80;;;;;;;;;;103992;1291;544912;-73
2024/03/21 18:40:36;;;;;;;19.90;13.90;;;;;;;;;;103589;1294;544990;-71
2024/03/21 18:44:13;;;;;;;18.10;12.90;;;;;;;;;;103724;1292;544933;-73
2024/03/21 18:47:47;;;;;;;16.50;10.70;;;;;;;;;;103801;1290;545026;-71
2024/03/21 18:51:28;;;;;;;16.20;10.90;;;;;;;;;;104173;1292;544974;-71
2024/03/21 18:55:06;;;;;;;15.40;9.70;;;;;;;;;;103747;1292;544792;-71
2024/03/21 18:58:39;;;;;;;14.00;9.10;;;;;;;;;;104107;1289;545593;-72
2024/03/21 19:02:21;;;;;;;14.60;8.60;;;;;;;;;;103821;1289;544929;-73
2024/03/21 19:05:58;;;;;;;13.80;8.40;;;;;;;;;;103615;1292;544733;-73
2024/03/21 19:09:35;;;;;;;12.20;8.30;;;;;;;;;;104112;1285;544969;-73
2024/03/21 19:13:12;;;;;;;14.90;9.40;;;;;;;;;;103727;1291;545083;-72
2024/03/21 19:16:50;;;;;;;12.70;7.80;;;;;;;;;;103779;1288;545754;-74
2024/03/21 19:20:33;;;;;;;13.50;8.50;;;;;;;;;;103687;1292;547945;-72
2024/03/21 19:24:05;;;;;;;12.70;8.10;;;;;;;;;;104113;1287;544968;-74
2024/03/21 19:27:44;;;;;;;14.70;8.60;;;;;;;;;;103807;1291;544962;-73
2024/03/21 19:31:21;;;;;;;13.30;8.20;;;;;;;;;;103626;1291;544999;-72
2024/03/21 19:34:59;;;;;;;12.20;7.30;;;;;;;;;;103697;1292;544803;-73
2024/03/21 19:38:36;;;;;;;14.50;7.90;;;;;;;;;;103864;1295;545415;-73
2024/03/21 19:42:13;;;;;;;13.00;7.90;;;;;;;;;;103943;1301;545785;-71
2024/03/21 19:45:52;;;;;;;16.30;8.60;;;;;;;;;;103802;1292;544760;-72
2024/03/21 19:49:29;;;;;;;13.80;8.30;;;;;;;;;;103779;1289;545000;-73
2024/03/21 19:53:02;;;;;;;15.20;9.60;;;;;;;;;;103777;1288;544792;-71
2024/03/21 19:56:43;;;;;;;14.90;9.50;;;;;;;;;;103722;1292;545385;-71
2024/03/21 20:00:20;;;;;;;14.30;9.30;;;;;;;;;;104091;1286;545158;-72
2024/03/21 20:03:58;;;;;;;14.50;9.60;;;;;;;;;;103926;1295;544820;-71
2024/03/21 20:07:36;;;;;;;13.50;9.70;;;;;;;;;;103808;1292;544847;-73
2024/03/21 20:11:14;;;;;;;15.20;10.10;;;;;;;;;;103672;1292;544748;-72
2024/03/21 20:14:51;;;;;;;18.60;11.10;;;;;;;;;;103842;1290;545033;-72
2024/03/21 20:18:27;;;;;;;22.10;13.50;;;;;;;;;;103484;1294;544780;-72
2024/03/21 20:22:06;;;;;;;21.10;12.60;;;;;;;;;;103806;1289;544849;-71
2024/03/21 20:25:42;;;;;;;16.10;11.00;;;;;;;;;;103715;1292;544834;-73
2024/03/21 20:29:20;;;;;;;15.90;12.00;;;;;;;;;;103843;1292;545516;-73
2024/03/21 20:32:57;;;;;;;19.30;13.20;;;;;;;;;;103696;1292;545500;-71
2024/03/21 20:36:36;;;;;;;19.40;13.80;;;;;;;;;;103843;1289;544835;-71
2024/03/21 20:40:14;;;;;;;17.10;12.20;;;;;;;;;;103884;1289;544776;-73